createdAt,value
2018-07-26T12:27:51.701Z,46.60
2018-07-26T12:29:53.717Z,46.70
2018-07-26T12:31:55.711Z,46.40
2018-07-26T12:33:57.749Z,46.50
2018-07-26T12:35:59.761Z,45.90
2018-07-26T12:38:01.774Z,46.00
2018-07-26T12:40:03.796Z,46.00
2018-07-26T12:42:05.800Z,46.00
2018-07-26T12:44:07.823Z,46.00
2018-07-26T12:46:09.850Z,45.90
2018-07-26T12:48:11.867Z,45.80
2018-07-26T12:50:13.881Z,46.00
2018-07-26T12:52:15.891Z,46.00
2018-07-26T12:54:17.897Z,46.20
2018-07-26T12:56:20.636Z,46.00
2018-07-26T12:58:22.674Z,46.20
2018-07-26T13:00:24.701Z,46.80
2018-07-26T13:02:26.704Z,46.10
2018-07-26T13:04:28.731Z,46.10
2018-07-26T13:06:30.761Z,46.40
2018-07-26T13:08:32.781Z,46.30
2018-07-26T13:10:34.904Z,46.40
2018-07-26T13:12:36.903Z,46.40
2018-07-26T13:14:39.008Z,46.40
2018-07-26T13:16:41.099Z,46.60
2018-07-26T13:18:43.098Z,46.50
2018-07-26T13:20:45.221Z,46.60
2018-07-26T13:22:47.182Z,46.50
2018-07-26T13:24:49.189Z,46.40
2018-07-26T13:26:51.217Z,46.60
2018-07-26T13:28:53.222Z,46.60
2018-07-26T13:30:55.233Z,46.70
2018-07-26T13:32:57.248Z,46.80
2018-07-26T13:34:59.266Z,46.80
2018-07-26T13:37:01.288Z,46.50
2018-07-26T13:39:03.944Z,46.70
2018-07-26T13:41:05.980Z,46.30
2018-07-26T13:43:07.958Z,46.50
2018-07-26T13:45:09.989Z,46.20
2018-07-26T13:47:11.996Z,46.50
2018-07-26T13:49:14.006Z,46.20
2018-07-26T13:51:16.017Z,46.30
2018-07-26T13:53:18.019Z,46.20
2018-07-26T13:55:20.037Z,46.10
2018-07-26T13:57:22.043Z,46.20
2018-07-26T13:59:24.079Z,46.30
2018-07-26T14:01:26.076Z,46.50
2018-07-26T14:03:28.102Z,46.90
2018-07-26T14:05:30.112Z,47.50
2018-07-26T14:07:32.145Z,47.30
2018-07-26T14:09:34.174Z,47.00
2018-07-26T14:11:36.206Z,46.60
2018-07-26T14:13:38.219Z,46.70
2018-07-26T14:15:40.281Z,46.50
2018-07-26T14:17:42.304Z,47.40
2018-07-26T14:19:44.296Z,46.90
2018-07-26T14:21:46.321Z,47.70
2018-07-26T14:23:48.354Z,47.80
2018-07-26T14:25:50.378Z,47.50
2018-07-26T14:27:52.484Z,47.20
2018-07-26T14:29:54.470Z,46.90
2018-07-26T14:31:56.615Z,46.40
2018-07-26T14:33:58.638Z,46.70
2018-07-26T14:36:00.666Z,46.70
2018-07-26T14:38:02.699Z,46.10
2018-07-26T14:40:04.706Z,45.80
2018-07-26T14:42:06.717Z,46.30
2018-07-26T14:44:08.754Z,46.10
2018-07-26T14:46:10.760Z,45.70
2018-07-26T14:48:12.768Z,45.90
2018-07-26T14:50:14.811Z,45.70
2018-07-26T14:52:16.934Z,45.80
2018-07-26T14:54:19.051Z,45.80
2018-07-26T14:56:21.048Z,45.90
2018-07-26T14:58:23.082Z,45.70
2018-07-26T15:00:25.093Z,45.90
2018-07-26T15:02:27.111Z,45.90
2018-07-26T15:04:29.108Z,46.20
2018-07-26T15:06:31.110Z,45.60
2018-07-26T15:08:33.118Z,45.30
2018-07-26T15:10:35.126Z,45.40
2018-07-26T15:12:37.173Z,46.80
2018-07-26T15:14:39.164Z,46.80
2018-07-26T15:16:41.193Z,46.70
2018-07-26T15:18:43.199Z,46.80
2018-07-26T15:20:45.210Z,46.70
2018-07-26T15:22:47.311Z,46.40
2018-07-26T15:24:49.329Z,46.30
2018-07-26T15:26:52.381Z,46.40
2018-07-26T15:28:54.403Z,46.40
2018-07-26T15:30:56.428Z,46.50
2018-07-26T15:32:58.523Z,46.40
2018-07-26T15:35:00.509Z,46.40
2018-07-26T15:37:02.512Z,46.40
2018-07-26T15:39:04.526Z,46.50
2018-07-26T15:41:06.573Z,46.40
2018-07-26T15:43:08.585Z,47.20
2018-07-26T15:47:12.845Z,45.50
2018-07-26T15:49:14.829Z,45.80
2018-07-26T15:51:16.951Z,46.00
2018-07-26T15:53:18.887Z,46.00
2018-07-26T15:55:20.890Z,45.90
2018-07-26T15:57:22.932Z,45.90
2018-07-26T15:59:25.076Z,46.20
2018-07-26T16:01:27.113Z,45.90
2018-07-26T16:03:29.164Z,45.70
2018-07-26T16:05:31.173Z,45.70
2018-07-26T16:07:33.176Z,46.00
2018-07-26T16:09:35.180Z,45.90
2018-07-26T16:11:37.214Z,46.00
2018-07-26T16:13:39.203Z,46.70
2018-07-26T16:15:41.341Z,46.30
2018-07-26T16:17:43.509Z,46.80
2018-07-26T16:19:45.400Z,46.30
2018-07-26T16:21:47.435Z,46.80
2018-07-26T16:23:49.467Z,46.80
2018-07-26T16:25:51.497Z,46.60
2018-07-26T16:27:53.525Z,47.10
2018-07-26T16:29:55.537Z,47.00
2018-07-26T16:31:57.556Z,46.40
2018-07-26T16:33:59.700Z,46.20
2018-07-26T16:36:01.705Z,46.00
2018-07-26T16:38:03.729Z,45.90
2018-07-26T16:40:05.827Z,45.80
2018-07-26T16:42:07.750Z,45.50
2018-07-26T16:44:09.775Z,45.10
2018-07-26T16:46:12.195Z,44.90
2018-07-26T16:48:14.220Z,44.60
2018-07-26T16:50:16.240Z,44.70
2018-07-26T16:52:18.273Z,44.40
2018-07-26T16:54:20.410Z,44.30
2018-07-26T16:56:22.431Z,44.20
2018-07-26T16:58:24.542Z,44.20
2018-07-26T17:00:26.478Z,44.00
2018-07-26T17:02:28.501Z,43.80
2018-07-26T17:04:30.514Z,44.00
2018-07-26T17:06:32.519Z,43.80
2018-07-26T17:08:34.549Z,43.90
2018-07-26T17:10:36.575Z,43.20
2018-07-26T17:12:38.580Z,43.40
2018-07-26T17:14:40.613Z,43.00
2018-07-26T17:16:42.635Z,42.90
2018-07-26T17:18:44.734Z,43.10
2018-07-26T17:20:46.726Z,43.10
2018-07-26T17:22:48.759Z,42.90
2018-07-26T17:24:50.773Z,43.40
2018-07-26T17:26:52.776Z,43.20
2018-07-26T17:28:54.949Z,43.70
2018-07-26T17:30:57.321Z,43.40
2018-07-26T17:32:59.390Z,43.30
2018-07-26T17:35:01.387Z,43.30
2018-07-26T17:37:03.397Z,43.80
2018-07-26T17:39:06.082Z,43.40
2018-07-26T17:41:08.093Z,43.60
2018-07-26T17:43:10.109Z,43.70
2018-07-26T17:45:12.134Z,43.60
2018-07-26T17:47:14.152Z,43.80
2018-07-26T17:49:16.201Z,44.40
2018-07-26T17:51:18.219Z,44.30
2018-07-26T17:53:20.262Z,44.50
2018-07-26T17:55:22.284Z,44.60
2018-07-26T17:57:24.299Z,45.00
2018-07-26T17:59:26.320Z,45.10
2018-07-26T18:01:28.338Z,45.20
2018-07-26T18:03:30.362Z,45.30
2018-07-26T18:05:32.380Z,45.50
2018-07-26T18:07:34.390Z,45.80
2018-07-26T18:09:36.469Z,46.30
2018-07-26T18:11:38.488Z,45.90
2018-07-26T18:13:40.523Z,46.10
2018-07-26T18:15:42.523Z,46.20
2018-07-26T18:17:44.584Z,46.30
2018-07-26T18:19:46.640Z,46.50
2018-07-26T18:21:48.632Z,46.60
2018-07-26T18:23:50.654Z,46.60
2018-07-26T18:25:52.684Z,46.90
2018-07-26T18:27:54.702Z,46.80
2018-07-26T18:29:56.746Z,47.10
2018-07-26T18:31:58.763Z,47.40
2018-07-26T18:34:00.796Z,47.10
2018-07-26T18:36:02.829Z,47.30
2018-07-26T18:38:04.855Z,47.40
2018-07-26T18:40:06.872Z,47.50
2018-07-26T18:42:08.878Z,47.60
2018-07-26T18:44:10.943Z,47.70
2018-07-26T18:46:12.945Z,47.80
2018-07-26T18:48:14.985Z,47.40
2018-07-26T18:50:17.120Z,47.10
2018-07-26T18:52:19.152Z,47.40
2018-07-26T18:54:21.166Z,47.10
2018-07-26T18:56:23.180Z,47.40
2018-07-26T18:58:25.187Z,47.10
2018-07-26T19:00:27.210Z,47.10
2018-07-26T19:02:29.236Z,47.00
2018-07-26T19:04:31.256Z,47.10
2018-07-26T19:06:33.267Z,47.10
2018-07-26T19:08:35.372Z,47.00
2018-07-26T19:10:37.351Z,46.90
2018-07-26T19:12:39.376Z,46.70
2018-07-26T19:14:41.396Z,46.70
2018-07-26T19:16:43.411Z,46.60
2018-07-26T19:18:45.416Z,46.50
2018-07-26T19:20:47.440Z,46.40
2018-07-26T19:22:49.445Z,46.40
2018-07-26T19:24:52.685Z,46.50
2018-07-26T19:26:59.119Z,46.80
2018-07-26T19:29:01.162Z,47.60
2018-07-26T19:31:03.239Z,47.70
2018-07-26T19:33:10.796Z,47.70
2018-07-26T19:37:30.726Z,48.00
2018-07-26T19:39:32.793Z,48.20
2018-07-26T19:41:34.989Z,48.20
2018-07-26T19:43:37.154Z,48.20
2018-07-26T19:45:39.232Z,48.40
2018-07-26T19:47:41.304Z,48.50
2018-07-26T19:49:43.365Z,48.60
2018-07-26T19:51:45.505Z,48.60
2018-07-26T19:53:47.600Z,48.70
2018-07-26T19:55:49.790Z,48.80
2018-07-26T19:57:51.960Z,48.80
2018-07-26T19:59:54.035Z,48.80
2018-07-26T20:01:59.491Z,48.90
2018-07-26T20:04:01.565Z,48.90
2018-07-26T20:06:04.034Z,49.00
2018-07-26T20:08:06.159Z,49.00
2018-07-26T20:10:08.301Z,49.20
2018-07-26T20:12:10.431Z,49.20
2018-07-26T20:14:12.975Z,49.20
2018-07-26T20:16:15.024Z,49.40
2018-07-26T20:18:17.131Z,49.50
2018-07-26T20:20:19.255Z,49.50
2018-07-26T20:22:21.302Z,50.30
2018-07-26T20:24:23.377Z,49.60
2018-07-26T20:26:25.469Z,49.60
2018-07-26T20:28:27.533Z,50.10
2018-07-26T20:30:29.586Z,49.70
2018-07-26T20:32:31.693Z,50.00
2018-07-26T20:34:33.823Z,49.70
2018-07-26T20:36:35.907Z,49.80
2018-07-26T20:38:38.430Z,49.80
2018-07-26T20:40:40.606Z,49.80
2018-07-26T20:42:42.718Z,49.90
2018-07-26T20:44:44.792Z,50.00
2018-07-26T20:46:46.810Z,50.10
2018-07-26T20:48:48.888Z,50.10
2018-07-26T20:50:51.391Z,50.20
2018-07-26T20:52:53.423Z,50.20
2018-07-26T20:54:55.502Z,50.40
2018-07-26T20:56:57.572Z,50.30
2018-07-26T20:58:59.652Z,50.40
2018-07-26T21:01:01.687Z,50.40
2018-07-26T21:03:03.743Z,50.60
2018-07-26T21:05:05.819Z,50.60
2018-07-26T21:07:07.898Z,50.70
2018-07-26T21:09:09.985Z,50.70
2018-07-26T21:11:12.069Z,51.00
2018-07-26T21:13:14.115Z,50.80
2018-07-26T21:17:18.475Z,50.50
2018-07-26T21:19:20.508Z,50.90
2018-07-26T21:21:22.642Z,51.30
2018-07-26T21:23:24.692Z,50.90
2018-07-26T21:25:26.775Z,51.10
2018-07-26T21:27:28.854Z,51.10
2018-07-26T21:29:30.905Z,51.10
2018-07-26T21:31:33.423Z,51.20
2018-07-26T21:33:35.502Z,51.20
2018-07-26T21:35:37.648Z,51.20
2018-07-26T21:37:40.007Z,51.20
2018-07-26T21:39:42.472Z,51.20
2018-07-26T21:41:44.610Z,51.40
2018-07-26T21:43:46.697Z,51.30
2018-07-26T21:45:48.746Z,51.20
2018-07-26T21:47:50.847Z,51.40
2018-07-26T21:49:52.924Z,51.30
2018-07-26T21:51:55.033Z,52.10
2018-07-26T21:53:57.084Z,51.50
2018-07-26T21:55:59.164Z,51.60
2018-07-26T21:58:01.249Z,51.60
2018-07-26T22:00:03.309Z,51.60
